createdAt,value
2023-04-26T00:00:25.596Z,4.53
2023-04-26T00:03:28.365Z,4.32
2023-04-26T00:06:31.133Z,4.47
2023-04-26T00:09:33.908Z,4.35
2023-04-26T00:12:37.320Z,5.20
2023-04-26T00:15:39.969Z,3.63
2023-04-26T00:18:43.399Z,5.03
2023-04-26T00:21:45.970Z,4.75
2023-04-26T00:24:48.839Z,5.13
2023-04-26T00:27:52.426Z,5.40
2023-04-26T00:30:57.889Z,5.50
2023-04-26T00:34:00.887Z,4.25
2023-04-26T00:37:04.536Z,4.88
2023-04-26T00:40:07.874Z,4.95
2023-04-26T00:43:11.225Z,5.88
2023-04-26T00:46:14.280Z,4.67
2023-04-26T00:49:18.633Z,4.97
2023-04-26T00:52:21.948Z,5.25
2023-04-26T00:55:27.216Z,5.20
2023-04-26T00:58:30.192Z,5.25
2023-04-26T01:01:32.911Z,4.67
2023-04-26T01:04:37.457Z,6.18
2023-04-26T01:07:40.104Z,4.63
2023-04-26T01:10:42.805Z,5.13
2023-04-26T01:13:46.636Z,5.80
2023-04-26T01:16:50.239Z,4.20
2023-04-26T01:19:53.049Z,5.63
2023-04-26T01:22:56.068Z,5.43
2023-04-26T01:25:58.712Z,5.18
2023-04-26T01:29:01.795Z,5.43
2023-04-26T01:32:04.640Z,4.77
2023-04-26T01:35:07.756Z,5.05
2023-04-26T01:38:10.373Z,5.28
2023-04-26T01:41:13.287Z,5.35
2023-04-26T01:44:16.273Z,5.28
2023-04-26T01:47:19.152Z,4.20
2023-04-26T01:50:21.752Z,5.35
2023-04-26T01:53:24.416Z,4.85
2023-04-26T01:56:27.097Z,5.57
2023-04-26T01:59:29.851Z,5.50
2023-04-26T02:02:34.607Z,4.90
2023-04-26T02:05:39.145Z,5.03
2023-04-26T02:08:41.789Z,5.20
2023-04-26T02:11:44.460Z,4.60
2023-04-26T02:14:47.280Z,5.70
2023-04-26T02:17:49.961Z,5.10
2023-04-26T02:20:52.697Z,4.28
2023-04-26T02:23:55.524Z,4.13
2023-04-26T02:27:03.533Z,4.88
2023-04-26T02:30:07.085Z,5.30
2023-04-26T02:33:10.616Z,4.47
2023-04-26T02:36:13.411Z,4.90
2023-04-26T02:39:16.961Z,5.18
2023-04-26T02:42:19.559Z,5.07
2023-04-26T02:45:23.009Z,4.30
2023-04-26T02:48:26.143Z,4.17
2023-04-26T02:51:28.897Z,5.20
2023-04-26T02:54:31.506Z,4.88
2023-04-26T02:57:34.241Z,4.25
2023-04-26T03:00:36.983Z,4.65
2023-04-26T03:03:39.733Z,4.33
2023-04-26T03:06:42.527Z,4.28
2023-04-26T03:09:45.247Z,4.22
2023-04-26T03:12:47.900Z,4.57
2023-04-26T03:15:52.643Z,4.30
2023-04-26T03:18:57.480Z,4.20
2023-04-26T03:22:00.418Z,4.10
2023-04-26T03:25:04.022Z,4.35
2023-04-26T03:28:06.769Z,3.63
2023-04-26T03:31:09.762Z,4.82
2023-04-26T03:34:12.393Z,4.33
2023-04-26T03:37:15.112Z,4.55
2023-04-26T03:40:20.468Z,5.40
2023-04-26T03:43:23.240Z,4.43
2023-04-26T03:46:25.953Z,4.18
2023-04-26T03:49:28.733Z,4.30
2023-04-26T03:52:31.813Z,5.00
2023-04-26T03:55:34.526Z,4.80
2023-04-26T03:58:37.193Z,4.68
2023-04-26T04:01:40.192Z,4.47
2023-04-26T04:04:43.198Z,3.90
2023-04-26T04:07:45.950Z,3.90
2023-04-26T04:10:49.794Z,5.18
2023-04-26T04:13:52.429Z,4.40
2023-04-26T04:16:55.117Z,4.10
2023-04-26T04:19:57.750Z,4.43
2023-04-26T04:23:02.158Z,4.60
2023-04-26T04:26:06.048Z,5.07
2023-04-26T04:29:09.267Z,4.20
2023-04-26T04:32:15.193Z,4.82
2023-04-26T04:35:19.156Z,4.00
2023-04-26T04:38:22.015Z,3.83
2023-04-26T04:41:25.090Z,4.28
2023-04-26T04:44:27.896Z,3.95
2023-04-26T04:47:31.858Z,4.18
2023-04-26T04:50:36.071Z,3.93
2023-04-26T04:53:38.713Z,4.25
2023-04-26T04:56:42.167Z,4.13
2023-04-26T04:59:46.421Z,4.38
2023-04-26T05:02:49.421Z,4.07
2023-04-26T05:05:52.356Z,3.53
2023-04-26T05:08:57.118Z,3.60
2023-04-26T05:12:03.339Z,3.75
2023-04-26T05:15:08.492Z,4.28
2023-04-26T05:18:11.413Z,4.00
2023-04-26T05:21:14.243Z,4.50
2023-04-26T05:24:16.898Z,3.95
2023-04-26T05:27:19.703Z,4.03
2023-04-26T05:30:28.754Z,3.65
2023-04-26T05:33:42.029Z,4.35
2023-04-26T05:37:03.755Z,5.00
2023-04-26T05:40:08.151Z,3.97
2023-04-26T05:43:11.222Z,4.05
2023-04-26T05:46:15.006Z,3.83
2023-04-26T05:49:17.763Z,4.05
2023-04-26T05:52:20.596Z,3.60
2023-04-26T05:55:26.198Z,4.38
2023-04-26T05:58:29.309Z,3.58
2023-04-26T06:01:32.476Z,4.10
2023-04-26T06:04:35.831Z,5.40
2023-04-26T06:07:44.316Z,3.73
2023-04-26T06:10:47.545Z,3.60
2023-04-26T06:13:50.745Z,4.15
2023-04-26T06:16:54.366Z,3.75
2023-04-26T06:19:57.294Z,4.05
2023-04-26T06:23:00.426Z,3.70
2023-04-26T06:26:03.663Z,4.10
2023-04-26T06:29:07.693Z,4.25
2023-04-26T06:32:25.407Z,4.03
2023-04-26T06:35:29.117Z,4.22
2023-04-26T06:38:32.402Z,3.83
2023-04-26T06:41:35.628Z,3.13
2023-04-26T06:44:40.358Z,3.97
2023-04-26T06:47:43.572Z,3.88
2023-04-26T06:50:47.267Z,4.38
2023-04-26T06:53:50.547Z,4.30
2023-04-26T06:56:53.658Z,2.88
2023-04-26T06:59:58.324Z,3.25
2023-04-26T07:03:01.302Z,3.15
2023-04-26T07:06:05.118Z,2.80
2023-04-26T07:09:08.792Z,2.70
2023-04-26T07:12:12.074Z,2.85
2023-04-26T07:15:14.753Z,2.55
2023-04-26T07:18:17.667Z,2.47
2023-04-26T07:21:20.686Z,2.65
2023-04-26T07:24:23.466Z,2.53
2023-04-26T07:27:26.220Z,2.60
2023-04-26T07:30:29.181Z,2.42
2023-04-26T07:33:32.319Z,2.38
2023-04-26T07:36:35.270Z,2.05
2023-04-26T07:39:38.302Z,1.80
2023-04-26T07:42:41.095Z,2.20
2023-04-26T07:45:44.129Z,2.15
2023-04-26T07:48:46.761Z,2.00
2023-04-26T07:51:52.115Z,2.05
2023-04-26T07:54:54.839Z,1.77
2023-04-26T07:57:57.544Z,2.03
2023-04-26T08:01:00.839Z,2.17
2023-04-26T08:04:05.091Z,1.95
2023-04-26T08:07:08.448Z,1.67
2023-04-26T08:10:12.020Z,1.77
2023-04-26T08:13:14.900Z,1.30
2023-04-26T08:16:17.892Z,1.80
2023-04-26T08:19:20.606Z,1.60
2023-04-26T08:22:23.238Z,1.90
2023-04-26T08:25:26.568Z,1.47
2023-04-26T08:28:29.363Z,2.22
2023-04-26T08:31:32.385Z,1.90
2023-04-26T08:34:35.422Z,2.85
2023-04-26T08:37:38.324Z,1.50
2023-04-26T08:40:42.508Z,1.90
2023-04-26T08:43:52.089Z,1.73
2023-04-26T08:47:25.699Z,2.13
2023-04-26T08:50:30.525Z,2.10
2023-04-26T08:53:37.378Z,1.75
2023-04-26T08:56:44.421Z,1.87
2023-04-26T08:59:48.238Z,1.50
2023-04-26T09:02:53.224Z,1.60
2023-04-26T09:05:56.637Z,2.08
2023-04-26T09:09:02.722Z,1.95
2023-04-26T09:12:05.867Z,1.70
2023-04-26T09:15:10.522Z,1.50
2023-04-26T09:18:22.417Z,1.58
2023-04-26T09:21:30.143Z,1.48
2023-04-26T09:24:50.752Z,1.42
2023-04-26T09:27:53.742Z,1.53
2023-04-26T09:30:56.914Z,1.65
2023-04-26T09:34:00.742Z,1.25
2023-04-26T09:37:03.828Z,1.23
2023-04-26T09:40:18.601Z,1.55
2023-04-26T09:43:22.700Z,1.20
2023-04-26T09:46:31.639Z,2.08
2023-04-26T09:49:46.407Z,1.40
2023-04-26T09:52:49.264Z,1.20
2023-04-26T09:55:57.951Z,1.38
2023-04-26T09:59:02.698Z,1.37
2023-04-26T10:02:09.543Z,1.35
2023-04-26T10:05:12.973Z,1.63
2023-04-26T10:08:16.717Z,1.30
2023-04-26T10:11:20.695Z,1.50
2023-04-26T10:14:24.270Z,1.33
2023-04-26T10:17:27.728Z,1.52
2023-04-26T10:20:31.181Z,1.50
2023-04-26T10:23:37.264Z,1.90
2023-04-26T10:26:59.734Z,1.30
2023-04-26T10:30:07.903Z,1.70
2023-04-26T10:33:16.776Z,1.38
2023-04-26T10:36:23.706Z,1.80
2023-04-26T10:39:33.363Z,1.80
2023-04-26T10:42:46.493Z,1.42
2023-04-26T10:46:04.289Z,1.93
2023-04-26T10:49:26.758Z,2.22
2023-04-26T10:52:37.750Z,2.08
2023-04-26T10:55:52.215Z,1.92
2023-04-26T10:59:30.670Z,1.60
2023-04-26T11:02:52.396Z,1.47
2023-04-26T11:06:10.556Z,2.28
2023-04-26T11:09:39.086Z,1.70
2023-04-26T11:12:42.544Z,1.50
2023-04-26T11:15:47.499Z,2.10
2023-04-26T11:18:59.821Z,1.90
2023-04-26T11:22:07.680Z,1.75
2023-04-26T11:25:14.534Z,1.90
2023-04-26T11:28:18.627Z,1.98
2023-04-26T11:31:21.671Z,1.90
2023-04-26T11:34:35.856Z,2.03
2023-04-26T11:37:38.505Z,1.80
2023-04-26T11:40:41.911Z,2.00
2023-04-26T11:43:44.524Z,1.60
2023-04-26T11:46:49.205Z,2.40
2023-04-26T11:49:51.980Z,1.50
2023-04-26T11:52:59.902Z,1.90
2023-04-26T11:56:02.431Z,2.05
2023-04-26T11:59:05.022Z,2.10
2023-04-26T12:02:08.514Z,1.80
2023-04-26T12:05:11.435Z,1.33
2023-04-26T12:08:14.370Z,1.80
2023-04-26T12:11:17.529Z,2.25
2023-04-26T12:14:20.095Z,1.60
2023-04-26T12:17:23.016Z,1.73
2023-04-26T12:20:31.445Z,1.33
2023-04-26T12:23:48.428Z,1.52
2023-04-26T12:27:05.038Z,1.30
2023-04-26T12:30:22.658Z,1.33
2023-04-26T12:33:42.536Z,1.40
2023-04-26T12:36:46.844Z,1.23
2023-04-26T12:39:49.475Z,1.20
2023-04-26T12:42:52.392Z,1.55
2023-04-26T12:46:00.820Z,1.50
2023-04-26T12:49:07.788Z,1.80
2023-04-26T12:52:15.089Z,1.70
2023-04-26T12:55:25.663Z,1.33
2023-04-26T12:58:35.172Z,1.77
2023-04-26T13:01:39.155Z,1.48
2023-04-26T13:04:44.682Z,1.95
2023-04-26T13:07:48.086Z,1.70
2023-04-26T13:10:51.428Z,1.77
2023-04-26T13:13:54.427Z,1.98
2023-04-26T13:17:00.847Z,1.48
2023-04-26T13:20:08.770Z,1.77
2023-04-26T13:23:22.181Z,1.70
2023-04-26T13:26:42.564Z,1.73
2023-04-26T13:29:50.040Z,1.90
2023-04-26T13:33:00.238Z,1.55
2023-04-26T13:36:14.932Z,1.80
2023-04-26T13:39:18.264Z,3.10
2023-04-26T13:42:21.448Z,5.70
2023-04-26T13:45:24.109Z,2.85
2023-04-26T13:48:27.293Z,5.10
2023-04-26T13:51:31.045Z,2.65
2023-04-26T13:54:34.094Z,1.80
2023-04-26T13:57:36.806Z,1.77
2023-04-26T14:00:39.411Z,1.85
2023-04-26T14:03:43.054Z,3.08
2023-04-26T14:06:45.852Z,2.58
2023-04-26T14:09:48.542Z,2.43
2023-04-26T14:12:51.221Z,3.50
2023-04-26T14:15:54.545Z,2.90
2023-04-26T14:18:57.371Z,1.63
2023-04-26T14:22:00.155Z,3.05
2023-04-26T14:25:03.901Z,2.60
2023-04-26T14:28:08.433Z,2.42
2023-04-26T14:31:11.401Z,2.92
2023-04-26T14:34:14.028Z,2.30
2023-04-26T14:37:16.899Z,2.72
2023-04-26T14:40:20.107Z,2.40
2023-04-26T14:43:23.023Z,2.50
2023-04-26T14:46:25.975Z,3.25
2023-04-26T14:49:28.655Z,1.98
2023-04-26T14:52:35.538Z,2.10
2023-04-26T14:55:38.294Z,2.00
2023-04-26T14:58:41.418Z,2.78
2023-04-26T15:01:44.597Z,2.28
2023-04-26T15:04:47.511Z,2.30
2023-04-26T15:07:51.010Z,3.10
2023-04-26T15:10:54.036Z,2.00
2023-04-26T15:13:56.798Z,2.35
2023-04-26T15:16:59.630Z,2.38
2023-04-26T15:20:02.417Z,2.90
2023-04-26T15:23:05.259Z,2.50
2023-04-26T15:26:07.913Z,2.63
2023-04-26T15:29:10.824Z,2.60
2023-04-26T15:32:13.641Z,2.83
2023-04-26T15:35:17.164Z,2.42
2023-04-26T15:38:19.899Z,3.10
2023-04-26T15:41:23.291Z,1.83
2023-04-26T15:44:26.076Z,2.10
2023-04-26T15:47:28.761Z,2.00
2023-04-26T15:50:31.697Z,2.03
2023-04-26T15:53:34.314Z,3.53
2023-04-26T15:56:37.276Z,2.20
2023-04-26T15:59:39.993Z,1.88
2023-04-26T16:02:45.807Z,2.88
2023-04-26T16:05:48.503Z,1.52
2023-04-26T16:08:51.237Z,1.80
2023-04-26T16:11:54.006Z,2.10
2023-04-26T16:14:57.554Z,2.50
2023-04-26T16:18:00.425Z,2.42
2023-04-26T16:21:13.100Z,1.92
2023-04-26T16:24:16.606Z,3.03
2023-04-26T16:27:22.439Z,2.83
2023-04-26T16:30:25.116Z,3.50
2023-04-26T16:33:28.066Z,4.15
2023-04-26T16:36:31.707Z,4.03
2023-04-26T16:39:36.112Z,3.28
2023-04-26T16:42:43.290Z,2.50
2023-04-26T16:45:46.277Z,3.38
2023-04-26T16:48:48.942Z,3.33
2023-04-26T16:51:54.733Z,2.85
2023-04-26T16:54:57.750Z,2.95
2023-04-26T16:58:00.666Z,3.43
2023-04-26T17:01:03.583Z,4.47
2023-04-26T17:04:06.380Z,3.70
2023-04-26T17:07:09.041Z,3.92
2023-04-26T17:10:12.110Z,4.72
2023-04-26T17:13:15.333Z,7.37
2023-04-26T17:16:18.563Z,7.43
2023-04-26T17:19:21.817Z,4.45
2023-04-26T17:22:24.450Z,5.00
2023-04-26T17:25:27.775Z,4.18
2023-04-26T17:28:31.446Z,2.07
2023-04-26T17:31:34.592Z,6.05
2023-04-26T17:34:38.958Z,5.10
2023-04-26T17:37:49.706Z,3.88
2023-04-26T17:40:53.909Z,3.63
2023-04-26T17:43:56.689Z,4.47
2023-04-26T17:46:59.405Z,3.50
2023-04-26T17:50:02.190Z,6.28
2023-04-26T17:53:06.145Z,3.75
2023-04-26T17:56:10.104Z,6.35
2023-04-26T17:59:12.790Z,3.97
2023-04-26T18:02:15.902Z,4.65
2023-04-26T18:05:18.822Z,6.50
2023-04-26T18:08:21.612Z,4.68
2023-04-26T18:11:24.367Z,4.25
2023-04-26T18:14:27.988Z,4.00
2023-04-26T18:17:30.689Z,3.33
2023-04-26T18:20:36.181Z,4.78
2023-04-26T18:23:39.078Z,4.07
2023-04-26T18:26:41.813Z,4.47
2023-04-26T18:29:44.583Z,4.30
2023-04-26T18:32:47.413Z,3.85
2023-04-26T18:35:50.310Z,4.43
2023-04-26T18:38:54.455Z,5.35
2023-04-26T18:41:57.190Z,5.25
2023-04-26T18:45:02.193Z,4.40
2023-04-26T18:48:05.327Z,4.75
2023-04-26T18:51:08.222Z,6.45
2023-04-26T18:54:11.351Z,5.07
2023-04-26T18:57:14.964Z,4.63
2023-04-26T19:00:17.933Z,6.20
2023-04-26T19:03:21.182Z,6.53
2023-04-26T19:06:24.233Z,32.67
2023-04-26T19:09:27.178Z,17.52
2023-04-26T19:12:30.590Z,8.02
2023-04-26T19:15:33.600Z,7.97
2023-04-26T19:18:37.417Z,9.55
2023-04-26T19:21:40.394Z,14.80
2023-04-26T19:24:43.392Z,10.35
2023-04-26T19:27:46.678Z,8.73
2023-04-26T19:30:49.768Z,8.00
2023-04-26T19:33:52.670Z,8.23
2023-04-26T19:36:55.585Z,9.55
2023-04-26T19:39:58.273Z,9.55
2023-04-26T19:43:02.411Z,9.45
2023-04-26T19:46:15.648Z,11.63
2023-04-26T19:49:18.812Z,16.90
2023-04-26T19:52:21.594Z,14.55
2023-04-26T19:55:27.245Z,12.25
2023-04-26T19:58:30.959Z,12.27
2023-04-26T20:01:35.249Z,20.23
2023-04-26T20:04:38.169Z,8.23
2023-04-26T20:07:40.881Z,8.25
2023-04-26T20:10:43.564Z,8.18
2023-04-26T20:13:46.938Z,6.88
2023-04-26T20:16:50.266Z,6.10
2023-04-26T20:19:53.339Z,6.35
2023-04-26T20:22:56.369Z,8.30
2023-04-26T20:25:59.179Z,6.78
2023-04-26T20:29:02.188Z,7.10
2023-04-26T20:32:05.462Z,7.60
2023-04-26T20:35:08.914Z,6.78
2023-04-26T20:38:11.911Z,7.85
2023-04-26T20:41:14.676Z,9.10
2023-04-26T20:44:17.458Z,8.77
2023-04-26T20:47:20.353Z,9.20
2023-04-26T20:50:23.132Z,7.85
2023-04-26T20:53:25.966Z,5.80
2023-04-26T20:56:28.812Z,5.75
2023-04-26T20:59:31.542Z,7.35
2023-04-26T21:02:34.382Z,6.33
2023-04-26T21:05:37.189Z,5.03
2023-04-26T21:08:41.169Z,5.32
2023-04-26T21:11:43.942Z,4.95
2023-04-26T21:14:47.979Z,6.30
2023-04-26T21:17:50.824Z,5.50
2023-04-26T21:20:53.624Z,5.43
2023-04-26T21:23:56.369Z,6.93
2023-04-26T21:26:58.996Z,8.98
2023-04-26T21:30:01.805Z,7.28
2023-04-26T21:33:04.579Z,5.17
2023-04-26T21:36:07.512Z,4.60
2023-04-26T21:39:10.584Z,5.10
2023-04-26T21:42:13.797Z,4.30
2023-04-26T21:45:16.550Z,5.28
2023-04-26T21:48:19.534Z,4.53
2023-04-26T21:51:22.421Z,4.78
2023-04-26T21:54:25.078Z,5.53
2023-04-26T21:57:27.722Z,5.18
2023-04-26T22:00:30.329Z,4.72
2023-04-26T22:03:33.162Z,4.37
2023-04-26T22:06:36.069Z,4.32
2023-04-26T22:09:38.779Z,4.40
2023-04-26T22:12:41.550Z,3.90
2023-04-26T22:15:44.323Z,4.40
2023-04-26T22:18:47.072Z,4.50
2023-04-26T22:21:49.780Z,4.50
2023-04-26T22:24:52.514Z,4.78
2023-04-26T22:27:55.233Z,4.20
2023-04-26T22:30:57.871Z,4.32
2023-04-26T22:34:00.490Z,4.87
2023-04-26T22:37:17.274Z,3.85
2023-04-26T22:40:23.408Z,6.43
2023-04-26T22:43:26.242Z,5.72
2023-04-26T22:46:29.195Z,4.95
2023-04-26T22:49:31.881Z,5.37
2023-04-26T22:52:35.449Z,5.45
2023-04-26T22:55:38.120Z,6.32
2023-04-26T22:58:40.968Z,6.10
2023-04-26T23:01:43.907Z,6.68
2023-04-26T23:04:47.341Z,6.00
2023-04-26T23:07:50.020Z,5.50
2023-04-26T23:10:52.902Z,5.88
2023-04-26T23:13:56.413Z,5.70
2023-04-26T23:16:59.302Z,5.93
2023-04-26T23:20:02.062Z,5.30
2023-04-26T23:23:04.917Z,6.43
2023-04-26T23:26:08.563Z,5.18
2023-04-26T23:29:11.662Z,5.43
2023-04-26T23:32:14.464Z,5.05
2023-04-26T23:35:17.142Z,4.67
2023-04-26T23:38:19.855Z,4.75
2023-04-26T23:41:22.639Z,4.70
2023-04-26T23:44:25.336Z,4.20
2023-04-26T23:47:28.045Z,4.88
2023-04-26T23:50:30.880Z,4.87
2023-04-26T23:53:33.646Z,4.47
2023-04-26T23:56:36.698Z,5.80
2023-04-26T23:59:39.372Z,4.97
